createdAt,value
2018-12-06T00:00:34.645Z,0
2018-12-06T00:01:34.630Z,0
2018-12-06T00:02:34.369Z,0
2018-12-06T00:03:34.890Z,0
2018-12-06T00:04:34.323Z,0
2018-12-06T00:05:34.558Z,0
2018-12-06T00:06:34.286Z,0
2018-12-06T00:07:34.263Z,0
2018-12-06T00:08:34.750Z,0
2018-12-06T00:09:34.230Z,0
2018-12-06T00:10:34.659Z,0
2018-12-06T00:11:34.192Z,0
2018-12-06T00:12:34.422Z,0
2018-12-06T00:13:34.556Z,0
2018-12-06T00:14:34.423Z,0
2018-12-06T00:15:34.752Z,0
2018-12-06T00:16:34.104Z,0
2018-12-06T00:17:34.787Z,0
2018-12-06T00:18:34.324Z,0
2018-12-06T00:19:34.059Z,0
2018-12-06T00:20:34.295Z,0
2018-12-06T00:21:33.998Z,0
2018-12-06T00:22:34.494Z,0
2018-12-06T00:23:34.253Z,0
2018-12-06T00:24:34.203Z,0
2018-12-06T00:25:34.453Z,0
2018-12-06T00:26:34.176Z,0
2018-12-06T00:27:34.427Z,0
2018-12-06T00:28:34.380Z,0
2018-12-06T00:29:33.606Z,0
2018-12-06T00:30:33.837Z,0
2018-12-06T00:31:34.073Z,0
2018-12-06T00:32:33.802Z,0
2018-12-06T00:33:34.032Z,0
2018-12-06T00:34:34.043Z,0
2018-12-06T00:35:33.740Z,0
2018-12-06T00:36:33.725Z,0
2018-12-06T00:37:34.214Z,0
2018-12-06T00:38:33.692Z,0
2018-12-06T00:39:33.932Z,0
2018-12-06T00:40:33.661Z,0
2018-12-06T00:41:33.885Z,0
2018-12-06T00:42:33.896Z,0
2018-12-06T00:43:33.618Z,0
2018-12-06T00:44:34.209Z,0
2018-12-06T00:45:33.852Z,0
2018-12-06T00:46:34.055Z,0
2018-12-06T00:47:33.263Z,0
2018-12-06T00:48:34.104Z,0
2018-12-06T00:49:33.998Z,0
2018-12-06T00:50:33.970Z,0
2018-12-06T00:51:33.686Z,0
2018-12-06T00:52:33.685Z,0
2018-12-06T00:53:33.658Z,0
2018-12-06T00:54:33.643Z,0
2018-12-06T00:55:33.367Z,0
2018-12-06T00:56:33.349Z,0
2018-12-06T00:57:33.834Z,0
2018-12-06T00:58:33.568Z,0
2018-12-06T00:59:33.049Z,0
2018-12-06T01:00:33.584Z,0
2018-12-06T01:01:33.273Z,0
2018-12-06T01:02:33.249Z,0
2018-12-06T01:03:33.760Z,0
2018-12-06T01:04:33.213Z,0
2018-12-06T01:05:33.779Z,0
2018-12-06T01:06:33.422Z,0
2018-12-06T01:07:33.137Z,0
2018-12-06T01:08:33.660Z,0
2018-12-06T01:09:32.850Z,0
2018-12-06T01:10:33.089Z,0
2018-12-06T01:11:33.318Z,0
2018-12-06T01:12:32.794Z,0
2018-12-06T01:13:33.588Z,0
2018-12-06T01:14:33.263Z,0
2018-12-06T01:15:33.249Z,0
2018-12-06T01:16:32.964Z,0
2018-12-06T01:17:33.215Z,0
2018-12-06T01:18:33.195Z,0
2018-12-06T01:19:32.948Z,0
2018-12-06T01:20:32.904Z,0
2018-12-06T01:21:32.881Z,0
2018-12-06T01:22:32.613Z,0
2018-12-06T01:23:32.618Z,0
2018-12-06T01:24:32.822Z,0
2018-12-06T01:25:33.167Z,0
2018-12-06T01:26:33.051Z,0
2018-12-06T01:27:32.508Z,0
2018-12-06T01:28:33.234Z,0
2018-12-06T01:29:33.034Z,0
2018-12-06T01:30:32.460Z,0
2018-12-06T01:31:32.956Z,0
2018-12-06T01:32:32.924Z,0
2018-12-06T01:33:33.191Z,0
2018-12-06T01:34:32.637Z,0
2018-12-06T01:35:33.242Z,0
2018-12-06T01:36:32.600Z,0
2018-12-06T01:37:32.832Z,0
2018-12-06T01:38:33.150Z,0
2018-12-06T01:39:32.557Z,0
2018-12-06T01:40:32.830Z,0
2018-12-06T01:41:32.527Z,0
2018-12-06T01:42:32.501Z,0
2018-12-06T01:43:32.475Z,0
2018-12-06T01:44:32.750Z,0
2018-12-06T01:45:32.646Z,0
2018-12-06T01:46:32.667Z,0
2018-12-06T01:47:32.670Z,0
2018-12-06T01:48:32.454Z,0
2018-12-06T01:49:32.627Z,0
2018-12-06T01:50:32.922Z,0
2018-12-06T01:51:32.091Z,0
2018-12-06T01:52:32.304Z,0
2018-12-06T01:53:32.286Z,0
2018-12-06T01:54:32.034Z,0
2018-12-06T01:55:31.990Z,0
2018-12-06T01:56:32.958Z,0
2018-12-06T01:57:31.961Z,0
2018-12-06T01:58:32.540Z,0
2018-12-06T01:59:32.443Z,0
2018-12-06T02:00:32.670Z,0
2018-12-06T02:01:32.146Z,0
2018-12-06T02:02:32.138Z,0
2018-12-06T02:03:32.361Z,0
2018-12-06T02:04:31.831Z,0
2018-12-06T02:05:31.569Z,0
2018-12-06T02:06:32.053Z,0
2018-12-06T02:07:32.287Z,0
2018-12-06T02:08:32.020Z,0
2018-12-06T02:09:32.256Z,0
2018-12-06T02:10:32.252Z,0
2018-12-06T02:11:32.464Z,0
2018-12-06T02:12:31.691Z,0
2018-12-06T02:13:31.925Z,0
2018-12-06T02:14:32.420Z,0
2018-12-06T02:15:31.874Z,0
2018-12-06T02:16:31.911Z,0
2018-12-06T02:17:32.148Z,0
2018-12-06T02:18:32.088Z,0
2018-12-06T02:19:32.068Z,0
2018-12-06T02:20:32.258Z,0
2018-12-06T02:21:32.293Z,0
2018-12-06T02:22:31.746Z,0
2018-12-06T02:23:31.993Z,0
2018-12-06T02:24:31.966Z,0
2018-12-06T02:25:32.265Z,0
2018-12-06T02:26:31.712Z,0
2018-12-06T02:27:31.402Z,0
2018-12-06T02:28:31.901Z,0
2018-12-06T02:29:32.142Z,0
2018-12-06T02:30:31.873Z,0
2018-12-06T02:31:31.603Z,0
2018-12-06T02:32:32.083Z,0
2018-12-06T02:33:31.570Z,0
2018-12-06T02:34:31.571Z,0
2018-12-06T02:35:31.270Z,0
2018-12-06T02:36:31.516Z,0
2018-12-06T02:37:31.236Z,0
2018-12-06T02:38:31.718Z,0
2018-12-06T02:39:31.457Z,0
2018-12-06T02:40:31.685Z,0
2018-12-06T02:41:31.410Z,0
2018-12-06T02:42:31.927Z,0
2018-12-06T02:43:31.882Z,0
2018-12-06T02:44:31.652Z,0
2018-12-06T02:45:31.089Z,0
2018-12-06T02:46:31.418Z,0
2018-12-06T02:47:31.561Z,0
2018-12-06T02:48:31.298Z,0
2018-12-06T02:49:31.826Z,0
2018-12-06T02:50:31.262Z,0
2018-12-06T02:51:31.724Z,0
2018-12-06T02:52:31.494Z,0
2018-12-06T02:53:31.448Z,0
2018-12-06T02:54:31.425Z,0
2018-12-06T02:55:31.385Z,0
2018-12-06T02:56:31.403Z,0
2018-12-06T02:57:31.118Z,0
2018-12-06T02:58:31.669Z,0
2018-12-06T02:59:31.607Z,0
2018-12-06T03:00:31.329Z,0
2018-12-06T03:01:31.594Z,0
2018-12-06T03:02:31.277Z,0
2018-12-06T03:03:31.510Z,0
2018-12-06T03:04:31.012Z,0
2018-12-06T03:05:30.721Z,0
2018-12-06T03:06:31.219Z,0
2018-12-06T03:07:30.961Z,0
2018-12-06T03:08:30.920Z,0
2018-12-06T03:09:31.150Z,0
2018-12-06T03:10:30.885Z,0
2018-12-06T03:11:30.879Z,0
2018-12-06T03:12:30.843Z,0
2018-12-06T03:13:31.093Z,0
2018-12-06T03:14:31.075Z,0
2018-12-06T03:15:31.340Z,0
2018-12-06T03:16:30.771Z,0
2018-12-06T03:17:30.768Z,0
2018-12-06T03:18:30.744Z,0
2018-12-06T03:19:30.983Z,0
2018-12-06T03:20:30.440Z,0
2018-12-06T03:21:30.425Z,0
2018-12-06T03:22:30.946Z,0
2018-12-06T03:23:31.194Z,0
2018-12-06T03:24:30.880Z,0
2018-12-06T03:25:31.154Z,0
2018-12-06T03:26:30.598Z,0
2018-12-06T03:27:30.842Z,0
2018-12-06T03:28:30.777Z,0
2018-12-06T03:29:30.800Z,0
2018-12-06T03:30:30.826Z,0
2018-12-06T03:31:31.099Z,0
2018-12-06T03:32:30.614Z,0
2018-12-06T03:33:30.664Z,0
2018-12-06T03:34:30.726Z,0
2018-12-06T03:35:30.679Z,0
2018-12-06T03:36:30.930Z,0
2018-12-06T03:37:30.918Z,0
2018-12-06T03:38:30.373Z,0
2018-12-06T03:39:30.884Z,0
2018-12-06T03:40:30.929Z,0
2018-12-06T03:41:30.830Z,0
2018-12-06T03:42:30.314Z,0
2018-12-06T03:43:30.284Z,0
2018-12-06T03:44:30.268Z,0
2018-12-06T03:45:30.597Z,0
2018-12-06T03:46:29.982Z,0
2018-12-06T03:47:30.241Z,0
2018-12-06T03:48:30.203Z,0
2018-12-06T03:49:30.185Z,0
2018-12-06T03:50:30.158Z,0
2018-12-06T03:51:30.404Z,0
2018-12-06T03:52:30.377Z,0
2018-12-06T03:53:30.371Z,0
2018-12-06T03:54:30.616Z,0
2018-12-06T03:55:30.356Z,0
2018-12-06T03:56:29.802Z,0
2018-12-06T03:57:30.287Z,0
2018-12-06T03:58:30.283Z,0
2018-12-06T03:59:30.011Z,0
2018-12-06T04:00:29.988Z,0
2018-12-06T04:01:29.961Z,0
2018-12-06T04:02:29.436Z,0
2018-12-06T04:03:30.191Z,0
2018-12-06T04:04:30.194Z,0
2018-12-06T04:05:30.406Z,0
2018-12-06T04:06:30.160Z,0
2018-12-06T04:07:29.868Z,0
2018-12-06T04:08:30.103Z,0
2018-12-06T04:09:29.864Z,0
2018-12-06T04:10:30.058Z,0
2018-12-06T04:11:30.312Z,0
2018-12-06T04:12:30.281Z,0
2018-12-06T04:13:29.770Z,0
2018-12-06T04:14:29.759Z,0
2018-12-06T04:15:29.715Z,0
2018-12-06T04:16:30.220Z,0
2018-12-06T04:17:29.684Z,0
2018-12-06T04:18:29.940Z,0
2018-12-06T04:19:29.750Z,0
2018-12-06T04:20:31.312Z,0
2018-12-06T04:21:29.609Z,0
2018-12-06T04:22:30.032Z,0
2018-12-06T04:23:29.591Z,0
2018-12-06T04:24:29.610Z,0
2018-12-06T04:25:30.085Z,0
2018-12-06T04:26:30.036Z,0
2018-12-06T04:27:30.178Z,0
2018-12-06T04:28:29.739Z,0
2018-12-06T04:29:29.468Z,0
2018-12-06T04:30:29.197Z,0
2018-12-06T04:31:29.180Z,0
2018-12-06T04:32:29.718Z,0
2018-12-06T04:33:29.145Z,0
2018-12-06T04:34:29.735Z,0
2018-12-06T04:35:29.369Z,0
2018-12-06T04:36:29.091Z,0
2018-12-06T04:37:29.326Z,0
2018-12-06T04:38:29.300Z,0
2018-12-06T04:39:29.284Z,0
2018-12-06T04:40:29.285Z,0
2018-12-06T04:41:28.995Z,0
2018-12-06T04:42:29.495Z,0
2018-12-06T04:43:29.375Z,0
2018-12-06T04:44:29.450Z,0
2018-12-06T04:45:29.730Z,0
2018-12-06T04:46:29.413Z,0
2018-12-06T04:47:29.402Z,0
2018-12-06T04:48:31.564Z,0
2018-12-06T04:49:29.119Z,0
2018-12-06T04:50:29.093Z,0
2018-12-06T04:51:29.326Z,0
2018-12-06T04:52:29.052Z,0
2018-12-06T04:53:29.552Z,0
2018-12-06T04:54:29.023Z,0
2018-12-06T04:55:29.266Z,0
2018-12-06T04:56:28.975Z,0
2018-12-06T04:57:29.464Z,0
2018-12-06T04:58:29.464Z,0
2018-12-06T04:59:29.214Z,0
2018-12-06T05:00:29.177Z,0
2018-12-06T05:01:29.150Z,0
2018-12-06T05:02:29.149Z,0
2018-12-06T05:03:28.859Z,0
2018-12-06T05:04:28.849Z,0
2018-12-06T05:05:29.154Z,0
2018-12-06T05:06:28.551Z,0
2018-12-06T05:07:29.143Z,0
2018-12-06T05:08:29.277Z,0
2018-12-06T05:09:28.811Z,0
2018-12-06T05:10:28.725Z,0
2018-12-06T05:11:28.969Z,0
2018-12-06T05:12:28.445Z,0
2018-12-06T05:13:28.683Z,0
2018-12-06T05:14:30.417Z,0
2018-12-06T05:15:28.644Z,0
2018-12-06T05:16:29.191Z,0
2018-12-06T05:17:28.937Z,0
2018-12-06T05:18:28.586Z,0
2018-12-06T05:19:28.564Z,0
2018-12-06T05:20:28.551Z,0
2018-12-06T05:21:28.864Z,0
2018-12-06T05:22:28.778Z,0
2018-12-06T05:23:28.902Z,0
2018-12-06T05:24:28.735Z,0
2018-12-06T05:25:28.722Z,0
2018-12-06T05:26:28.452Z,0
2018-12-06T05:27:28.417Z,0
2018-12-06T05:28:28.605Z,0
2018-12-06T05:29:28.900Z,0
2018-12-06T05:30:28.651Z,0
2018-12-06T05:31:28.864Z,0
2018-12-06T05:32:28.339Z,0
2018-12-06T05:33:28.827Z,0
2018-12-06T05:34:28.293Z,0
2018-12-06T05:35:28.818Z,0
2018-12-06T05:36:28.513Z,0
2018-12-06T05:37:28.503Z,0
2018-12-06T05:38:28.730Z,0
2018-12-06T05:39:27.953Z,0
2018-12-06T05:40:27.933Z,0
2018-12-06T05:41:28.161Z,0
2018-12-06T05:42:28.398Z,0
2018-12-06T05:43:28.642Z,0
2018-12-06T05:44:28.768Z,0
2018-12-06T05:45:28.133Z,0
2018-12-06T05:46:28.079Z,0
2018-12-06T05:47:28.056Z,0
2018-12-06T05:48:28.089Z,0
2018-12-06T05:49:28.373Z,0
2018-12-06T05:50:27.990Z,0
2018-12-06T05:51:28.239Z,0
2018-12-06T05:52:27.962Z,0
2018-12-06T05:53:28.197Z,0
2018-12-06T05:54:28.183Z,0
2018-12-06T05:55:28.163Z,0
2018-12-06T05:56:28.145Z,0
2018-12-06T05:57:27.630Z,0
2018-12-06T05:58:27.859Z,0
2018-12-06T05:59:28.352Z,0
2018-12-06T06:00:27.304Z,0
2018-12-06T06:01:27.833Z,0
2018-12-06T06:02:28.042Z,0
2018-12-06T06:03:27.581Z,0
2018-12-06T06:04:28.147Z,0
2018-12-06T06:05:27.714Z,0
2018-12-06T06:06:27.952Z,0
2018-12-06T06:07:27.956Z,0
2018-12-06T06:08:27.667Z,0
2018-12-06T06:09:28.054Z,0
2018-12-06T06:10:27.916Z,0
2018-12-06T06:11:27.613Z,0
2018-12-06T06:12:27.335Z,0
2018-12-06T06:13:27.836Z,0
2018-12-06T06:14:27.806Z,0
2018-12-06T06:15:27.891Z,0
2018-12-06T06:16:27.800Z,0
2018-12-06T06:17:27.744Z,0
2018-12-06T06:18:26.975Z,0
2018-12-06T06:19:27.712Z,0
2018-12-06T06:20:27.700Z,0
2018-12-06T06:21:27.669Z,0
2018-12-06T06:22:28.443Z,0
2018-12-06T06:23:27.376Z,0
2018-12-06T06:24:27.633Z,0
2018-12-06T06:25:27.615Z,0
2018-12-06T06:26:27.583Z,0
2018-12-06T06:27:28.827Z,0
2018-12-06T06:28:27.564Z,0
2018-12-06T06:29:27.270Z,0
2018-12-06T06:30:27.505Z,0
2018-12-06T06:31:26.975Z,0
2018-12-06T06:32:27.472Z,0
2018-12-06T06:33:26.942Z,0
2018-12-06T06:34:26.917Z,0
2018-12-06T06:35:27.158Z,0
2018-12-06T06:36:27.651Z,0
2018-12-06T06:37:27.923Z,0
2018-12-06T06:38:27.113Z,0
2018-12-06T06:39:27.340Z,0
2018-12-06T06:40:27.081Z,0
2018-12-06T06:41:27.590Z,0
2018-12-06T06:42:26.869Z,0
2018-12-06T06:43:27.018Z,0
2018-12-06T06:44:27.243Z,0
2018-12-06T06:45:27.235Z,0
2018-12-06T06:46:27.214Z,0
2018-12-06T06:47:28.489Z,0
2018-12-06T06:48:27.429Z,0
2018-12-06T06:49:26.394Z,0
2018-12-06T06:50:27.136Z,0
2018-12-06T06:51:27.119Z,0
2018-12-06T06:52:26.582Z,0
2018-12-06T06:53:26.823Z,0
2018-12-06T06:54:27.314Z,0
2018-12-06T06:55:26.533Z,0
2018-12-06T06:56:27.057Z,0
2018-12-06T06:57:27.254Z,0
2018-12-06T06:58:27.046Z,0
2018-12-06T06:59:32.912Z,0
2018-12-06T07:00:26.964Z,0
2018-12-06T07:01:26.934Z,0
2018-12-06T07:02:27.165Z,0
2018-12-06T07:03:27.142Z,0
2018-12-06T07:04:27.122Z,0
2018-12-06T07:05:26.617Z,0
2018-12-06T07:06:26.867Z,0
2018-12-06T07:07:26.303Z,0
2018-12-06T07:08:27.074Z,0
2018-12-06T07:09:26.770Z,0
2018-12-06T07:10:27.006Z,0
2018-12-06T07:11:26.747Z,0
2018-12-06T07:12:26.720Z,0
2018-12-06T07:13:26.710Z,0
2018-12-06T07:14:26.442Z,0
2018-12-06T07:15:26.148Z,0
2018-12-06T07:16:25.878Z,0
2018-12-06T07:17:26.882Z,0
2018-12-06T07:18:25.847Z,0
2018-12-06T07:19:26.338Z,0
2018-12-06T07:20:26.637Z,0
2018-12-06T07:21:26.563Z,0
2018-12-06T07:22:26.026Z,0
2018-12-06T07:23:26.253Z,0
2018-12-06T07:24:26.747Z,0
2018-12-06T07:25:26.244Z,0
2018-12-06T07:26:26.459Z,0
2018-12-06T07:27:26.684Z,0
2018-12-06T07:28:26.367Z,0
2018-12-06T07:29:26.676Z,0
2018-12-06T07:30:26.121Z,0
2018-12-06T07:31:26.113Z,0
2018-12-06T07:32:26.592Z,0
2018-12-06T07:33:26.328Z,0
2018-12-06T07:34:26.057Z,0
2018-12-06T07:35:25.791Z,0
2018-12-06T07:36:26.265Z,0
2018-12-06T07:37:26.319Z,0
2018-12-06T07:38:26.251Z,0
2018-12-06T07:39:26.261Z,0
2018-12-06T07:40:26.217Z,0
2018-12-06T07:41:25.941Z,0
2018-12-06T07:42:25.915Z,0
2018-12-06T07:43:27.622Z,0
2018-12-06T07:44:25.880Z,0
2018-12-06T07:45:26.111Z,0
2018-12-06T07:46:26.336Z,0
2018-12-06T07:47:25.825Z,0
2018-12-06T07:48:25.837Z,0
2018-12-06T07:49:26.028Z,0
2018-12-06T07:50:25.510Z,5
2018-12-06T07:51:26.264Z,5
2018-12-06T07:52:25.980Z,5
2018-12-06T07:53:25.957Z,5
2018-12-06T07:54:25.946Z,5
2018-12-06T07:55:25.665Z,5
2018-12-06T07:56:25.643Z,5
2018-12-06T07:57:25.374Z,5
2018-12-06T07:58:25.608Z,5
2018-12-06T07:59:25.848Z,5
2018-12-06T08:00:26.155Z,10
2018-12-06T08:01:25.815Z,5
2018-12-06T08:02:26.059Z,5
2018-12-06T08:03:25.523Z,5
2018-12-06T08:04:25.778Z,5
2018-12-06T08:05:25.526Z,5
2018-12-06T08:06:25.476Z,5
2018-12-06T08:07:25.953Z,10
2018-12-06T08:08:25.429Z,10
2018-12-06T08:09:25.958Z,5
2018-12-06T08:10:25.389Z,5
2018-12-06T08:11:25.633Z,10
2018-12-06T08:12:25.614Z,5
2018-12-06T08:13:25.340Z,5
2018-12-06T08:14:25.826Z,5
2018-12-06T08:15:25.048Z,5
2018-12-06T08:16:25.030Z,5
2018-12-06T08:17:25.527Z,5
2018-12-06T08:18:25.248Z,5
2018-12-06T08:19:25.769Z,5
2018-12-06T08:20:25.469Z,5
2018-12-06T08:21:25.191Z,5
2018-12-06T08:22:25.686Z,10
2018-12-06T08:23:24.927Z,10
2018-12-06T08:24:25.152Z,10
2018-12-06T08:25:25.900Z,10
2018-12-06T08:26:25.612Z,10
2018-12-06T08:27:25.594Z,15
2018-12-06T08:28:25.326Z,10
2018-12-06T08:29:25.070Z,10
2018-12-06T08:30:25.291Z,15
2018-12-06T08:31:25.046Z,20
2018-12-06T08:32:25.266Z,20
2018-12-06T08:33:24.983Z,20
2018-12-06T08:34:25.471Z,20
2018-12-06T08:35:24.949Z,25
2018-12-06T08:36:24.919Z,25
2018-12-06T08:37:24.902Z,30
2018-12-06T08:38:25.396Z,30
2018-12-06T08:39:25.617Z,25
2018-12-06T08:40:25.373Z,25
2018-12-06T08:41:24.839Z,30
2018-12-06T08:42:24.816Z,25
2018-12-06T08:43:25.058Z,20
2018-12-06T08:44:30.281Z,20
2018-12-06T08:45:24.506Z,20
2018-12-06T08:46:25.262Z,25
2018-12-06T08:47:24.981Z,25
2018-12-06T08:48:25.210Z,25
2018-12-06T08:49:25.241Z,30
2018-12-06T08:50:25.904Z,35
2018-12-06T08:51:24.906Z,35
2018-12-06T08:52:24.382Z,30
2018-12-06T08:53:24.877Z,30
2018-12-06T08:54:24.601Z,25
2018-12-06T08:55:24.595Z,25
2018-12-06T08:56:24.827Z,25
2018-12-06T08:57:24.799Z,25
2018-12-06T08:58:24.782Z,20
2018-12-06T08:59:24.772Z,20
2018-12-06T09:00:24.493Z,15
2018-12-06T09:01:25.039Z,15
2018-12-06T09:02:24.964Z,10
2018-12-06T09:03:24.693Z,10
2018-12-06T09:04:24.422Z,10
2018-12-06T09:05:24.476Z,10
2018-12-06T09:06:24.657Z,10
2018-12-06T09:07:24.123Z,10
2018-12-06T09:08:24.765Z,10
2018-12-06T09:09:24.349Z,10
2018-12-06T09:10:24.327Z,10
2018-12-06T09:11:24.044Z,10
2018-12-06T09:12:24.542Z,10
2018-12-06T09:13:24.527Z,10
2018-12-06T09:14:24.016Z,10
2018-12-06T09:15:24.484Z,10
2018-12-06T09:16:25.223Z,10
2018-12-06T09:17:24.201Z,10
2018-12-06T09:18:24.185Z,15
2018-12-06T09:19:23.907Z,15
2018-12-06T09:20:24.417Z,15
2018-12-06T09:21:24.134Z,15
2018-12-06T09:22:24.499Z,15
2018-12-06T09:23:24.097Z,20
2018-12-06T09:24:24.078Z,15
2018-12-06T09:25:30.632Z,15
2018-12-06T09:26:24.041Z,20
2018-12-06T09:27:24.105Z,20
2018-12-06T09:28:24.409Z,20
2018-12-06T09:29:24.261Z,25
2018-12-06T09:30:24.490Z,20
2018-12-06T09:31:23.967Z,25
2018-12-06T09:32:24.450Z,25
2018-12-06T09:33:24.179Z,25
2018-12-06T09:34:23.966Z,25
2018-12-06T09:35:24.155Z,25
2018-12-06T09:36:23.887Z,25
2018-12-06T09:37:23.868Z,25
2018-12-06T09:38:23.847Z,25
2018-12-06T09:39:23.824Z,30
2018-12-06T09:40:23.799Z,30
2018-12-06T09:41:23.535Z,30
2018-12-06T09:42:23.757Z,35
2018-12-06T09:43:24.009Z,30
2018-12-06T09:44:24.274Z,30
2018-12-06T09:45:23.699Z,30
2018-12-06T09:46:23.957Z,35
2018-12-06T09:47:23.680Z,40
2018-12-06T09:48:23.151Z,40
2018-12-06T09:49:23.891Z,30
2018-12-06T09:50:23.630Z,30
2018-12-06T09:51:23.609Z,35
2018-12-06T09:52:23.589Z,40
2018-12-06T09:53:23.573Z,40
2018-12-06T09:54:23.807Z,40
2018-12-06T09:55:24.038Z,35
2018-12-06T09:56:24.032Z,35
2018-12-06T09:57:23.251Z,35
2018-12-06T09:58:23.488Z,35
2018-12-06T09:59:23.731Z,40
2018-12-06T10:00:23.960Z,40
2018-12-06T10:01:23.443Z,40
2018-12-06T10:02:23.417Z,35
2018-12-06T10:03:23.151Z,40
2018-12-06T10:04:23.376Z,35
2018-12-06T10:05:25.654Z,30
2018-12-06T10:06:23.605Z,30
2018-12-06T10:07:23.585Z,25
2018-12-06T10:08:23.559Z,30
2018-12-06T10:09:23.296Z,30
2018-12-06T10:10:23.789Z,35
2018-12-06T10:11:23.540Z,35
2018-12-06T10:12:23.265Z,40
2018-12-06T10:13:23.227Z,40
2018-12-06T10:14:24.601Z,35
2018-12-06T10:15:23.189Z,30
2018-12-06T10:16:23.182Z,25
2018-12-06T10:17:23.703Z,30
2018-12-06T10:18:23.403Z,35
2018-12-06T10:19:23.382Z,35
2018-12-06T10:20:23.704Z,35
2018-12-06T10:21:22.867Z,40
2018-12-06T10:22:22.581Z,40
2018-12-06T10:23:23.058Z,35
2018-12-06T10:24:23.294Z,30
2018-12-06T10:25:23.291Z,30
2018-12-06T10:26:23.265Z,25
2018-12-06T10:27:22.740Z,30
2018-12-06T10:28:23.491Z,20
2018-12-06T10:29:23.499Z,20
2018-12-06T10:30:23.245Z,20
2018-12-06T10:31:22.932Z,25
2018-12-06T10:32:23.439Z,25
2018-12-06T10:33:22.891Z,30
2018-12-06T10:34:23.128Z,30
2018-12-06T10:35:22.860Z,30
2018-12-06T10:36:22.640Z,30
2018-12-06T10:37:23.335Z,35
2018-12-06T10:38:23.063Z,35
2018-12-06T10:39:22.819Z,35
2018-12-06T10:40:22.775Z,30
2018-12-06T10:41:22.788Z,25
2018-12-06T10:42:22.990Z,25
2018-12-06T10:43:22.718Z,20
2018-12-06T10:44:22.704Z,20
2018-12-06T10:45:22.706Z,20
2018-12-06T10:46:22.931Z,20
2018-12-06T10:47:22.488Z,20
2018-12-06T10:48:22.896Z,20
2018-12-06T10:49:23.125Z,20
2018-12-06T10:50:22.614Z,20
2018-12-06T10:51:22.855Z,25
2018-12-06T10:52:23.082Z,30
2018-12-06T10:53:22.804Z,35
2018-12-06T10:54:22.843Z,40
2018-12-06T10:55:22.770Z,35
2018-12-06T10:56:22.752Z,35
2018-12-06T10:57:22.740Z,35
2018-12-06T10:58:22.712Z,35
2018-12-06T10:59:22.461Z,30
2018-12-06T11:00:22.700Z,30
2018-12-06T11:01:22.944Z,35
2018-12-06T11:02:22.406Z,35
2018-12-06T11:03:22.638Z,30
2018-12-06T11:04:22.933Z,30
2018-12-06T11:05:22.643Z,25
2018-12-06T11:06:22.089Z,30
2018-12-06T11:07:22.379Z,30
2018-12-06T11:08:22.545Z,30
2018-12-06T11:09:22.285Z,30
2018-12-06T11:10:22.286Z,30
2018-12-06T11:11:22.001Z,25
2018-12-06T11:12:22.494Z,20
2018-12-06T11:13:22.213Z,20
2018-12-06T11:14:22.448Z,15
2018-12-06T11:15:22.432Z,15
2018-12-06T11:16:22.679Z,20
2018-12-06T11:17:22.417Z,20
2018-12-06T11:18:22.387Z,25
2018-12-06T11:19:22.367Z,25
2018-12-06T11:20:22.102Z,30
2018-12-06T11:21:22.086Z,35
2018-12-06T11:22:22.570Z,35
2018-12-06T11:23:22.390Z,40
2018-12-06T11:24:21.767Z,35
2018-12-06T11:25:22.644Z,25
2018-12-06T11:26:21.991Z,25
2018-12-06T11:27:22.505Z,25
2018-12-06T11:28:22.244Z,25
2018-12-06T11:29:21.944Z,25
2018-12-06T11:30:21.928Z,20
2018-12-06T11:31:22.171Z,20
2018-12-06T11:32:21.895Z,20
2018-12-06T11:33:22.420Z,20
2018-12-06T11:34:22.193Z,20
2018-12-06T11:35:22.376Z,25
2018-12-06T11:36:22.120Z,20
2018-12-06T11:37:22.079Z,15
2018-12-06T11:38:22.051Z,15
2018-12-06T11:39:22.042Z,15
2018-12-06T11:40:22.015Z,20
2018-12-06T11:41:21.846Z,20
2018-12-06T11:42:23.542Z,20
2018-12-06T11:43:21.976Z,20
2018-12-06T11:44:21.689Z,20
2018-12-06T11:45:21.723Z,20
2018-12-06T11:46:21.923Z,15
2018-12-06T11:47:21.899Z,15
2018-12-06T11:48:29.229Z,20
2018-12-06T11:49:21.347Z,20
2018-12-06T11:50:21.838Z,25
2018-12-06T11:51:21.317Z,20
2018-12-06T11:52:21.597Z,20
2018-12-06T11:53:21.801Z,20
2018-12-06T11:54:21.785Z,15
2018-12-06T11:55:22.096Z,20
2018-12-06T11:56:21.499Z,20
2018-12-06T11:57:21.476Z,25
2018-12-06T11:58:21.462Z,20
2018-12-06T11:59:21.444Z,15
2018-12-06T12:00:21.691Z,20
2018-12-06T12:01:21.674Z,20
2018-12-06T12:02:21.652Z,15
2018-12-06T12:03:21.368Z,15
2018-12-06T12:04:21.600Z,20
2018-12-06T12:05:21.846Z,15
2018-12-06T12:06:21.370Z,15
2018-12-06T12:07:21.299Z,15
2018-12-06T12:08:21.038Z,15
2018-12-06T12:09:22.869Z,15
2018-12-06T12:10:21.762Z,15
2018-12-06T12:11:21.239Z,15
2018-12-06T12:12:20.965Z,10
2018-12-06T12:13:21.204Z,20
2018-12-06T12:14:21.182Z,30
2018-12-06T12:15:21.459Z,30
2018-12-06T12:16:21.707Z,25
2018-12-06T12:17:21.193Z,25
2018-12-06T12:18:21.651Z,25
2018-12-06T12:19:20.880Z,30
2018-12-06T12:20:21.091Z,25
2018-12-06T12:21:21.518Z,35
2018-12-06T12:22:21.303Z,30
2018-12-06T12:23:21.288Z,15
2018-12-06T12:24:21.017Z,15
2018-12-06T12:25:20.992Z,20
2018-12-06T12:26:21.525Z,25
2018-12-06T12:27:20.968Z,30
2018-12-06T12:28:20.947Z,25
2018-12-06T12:29:21.205Z,40
2018-12-06T12:30:21.437Z,40
2018-12-06T12:31:21.447Z,45
2018-12-06T12:32:20.885Z,35
2018-12-06T12:33:21.375Z,45
2018-12-06T12:34:21.103Z,70
2018-12-06T12:35:21.359Z,85
2018-12-06T12:36:21.090Z,90
2018-12-06T12:37:21.049Z,80
2018-12-06T12:38:21.041Z,70
2018-12-06T12:39:20.777Z,60
2018-12-06T12:40:21.008Z,65
2018-12-06T12:41:20.483Z,70
2018-12-06T12:42:20.454Z,55
2018-12-06T12:43:20.713Z,45
2018-12-06T12:44:20.928Z,40
2018-12-06T12:45:20.913Z,55
2018-12-06T12:46:21.945Z,80
2018-12-06T12:47:21.139Z,90
2018-12-06T12:48:20.865Z,90
2018-12-06T12:49:20.858Z,85
2018-12-06T12:50:20.574Z,75
2018-12-06T12:51:20.561Z,60
2018-12-06T12:52:20.889Z,50
2018-12-06T12:53:20.868Z,50
2018-12-06T12:54:20.769Z,55
2018-12-06T12:55:20.750Z,50
2018-12-06T12:56:20.987Z,50
2018-12-06T12:57:20.519Z,50
2018-12-06T12:58:20.549Z,45
2018-12-06T12:59:20.182Z,40
2018-12-06T13:00:20.664Z,45
2018-12-06T13:01:20.424Z,45
2018-12-06T13:02:20.908Z,45
2018-12-06T13:03:20.608Z,45
2018-12-06T13:04:20.354Z,40
2018-12-06T13:05:20.323Z,35
2018-12-06T13:06:20.842Z,35
2018-12-06T13:07:20.045Z,35
2018-12-06T13:08:20.028Z,35
2018-12-06T13:09:20.539Z,40
2018-12-06T13:10:20.503Z,45
2018-12-06T13:11:20.743Z,45
2018-12-06T13:12:20.359Z,45
2018-12-06T13:13:20.485Z,45
2018-12-06T13:14:20.193Z,45
2018-12-06T13:15:20.667Z,50
2018-12-06T13:16:20.143Z,55
2018-12-06T13:17:20.394Z,55
2018-12-06T13:18:22.373Z,50
2018-12-06T13:19:20.357Z,50
2018-12-06T13:20:20.340Z,50
2018-12-06T13:21:20.326Z,50
2018-12-06T13:22:20.556Z,50
2018-12-06T13:23:19.819Z,50
2018-12-06T13:24:20.027Z,50
2018-12-06T13:25:19.743Z,50
2018-12-06T13:26:19.726Z,45
2018-12-06T13:27:19.457Z,50
2018-12-06T13:28:19.696Z,50
2018-12-06T13:29:20.392Z,50
2018-12-06T13:30:19.692Z,45
2018-12-06T13:31:20.414Z,45
2018-12-06T13:32:20.168Z,40
2018-12-06T13:33:20.371Z,35
2018-12-06T13:34:19.895Z,35
2018-12-06T13:35:20.369Z,40
2018-12-06T13:36:20.028Z,35
2018-12-06T13:37:20.101Z,30
2018-12-06T13:38:19.783Z,30
2018-12-06T13:39:19.274Z,30
2018-12-06T13:40:19.759Z,35
2018-12-06T13:41:19.748Z,35
2018-12-06T13:42:25.832Z,25
2018-12-06T13:43:19.958Z,20
2018-12-06T13:44:21.652Z,15
2018-12-06T13:45:19.426Z,15
2018-12-06T13:46:19.891Z,15
2018-12-06T13:47:19.646Z,15
2018-12-06T13:48:20.142Z,15
2018-12-06T13:49:19.871Z,15
2018-12-06T13:50:19.988Z,20
2018-12-06T13:51:19.564Z,20
2018-12-06T13:52:19.811Z,20
2018-12-06T13:53:19.794Z,15
2018-12-06T13:54:26.710Z,15
2018-12-06T13:55:19.777Z,15
2018-12-06T13:56:19.747Z,15
2018-12-06T13:57:22.136Z,10
2018-12-06T13:58:20.306Z,10
2018-12-06T13:59:19.444Z,15
2018-12-06T14:00:19.938Z,20
2018-12-06T14:01:21.522Z,25
2018-12-06T14:02:19.925Z,25
2018-12-06T14:03:19.636Z,25
2018-12-06T14:04:19.120Z,25
2018-12-06T14:05:19.361Z,25
2018-12-06T14:06:19.099Z,25
2018-12-06T14:07:19.323Z,20
2018-12-06T14:08:19.297Z,20
2018-12-06T14:09:19.875Z,25
2018-12-06T14:10:19.072Z,25
2018-12-06T14:11:18.996Z,25
2018-12-06T14:12:19.035Z,25
2018-12-06T14:13:25.968Z,20
2018-12-06T14:14:19.198Z,20
2018-12-06T14:15:19.428Z,20
2018-12-06T14:16:20.137Z,20
2018-12-06T14:17:19.409Z,20
2018-12-06T14:18:19.390Z,20
2018-12-06T14:19:19.121Z,20
2018-12-06T14:20:19.347Z,15
2018-12-06T14:21:19.081Z,15
2018-12-06T14:22:19.564Z,15
2018-12-06T14:23:18.796Z,15
2018-12-06T14:24:19.287Z,10
2018-12-06T14:25:19.009Z,10
2018-12-06T14:26:20.573Z,5
2018-12-06T14:27:18.471Z,5
2018-12-06T14:28:18.736Z,5
2018-12-06T14:29:18.707Z,10
2018-12-06T14:30:18.936Z,10
2018-12-06T14:31:19.176Z,10
2018-12-06T14:32:19.406Z,10
2018-12-06T14:33:19.387Z,10